sensor_id;sensor_type;location;lat;lon;timestamp;temperature;humidity
26224;DHT22;14820;48.682;8.890;2023-02-11T00:00:06;-2.40;99.90
26224;DHT22;14820;48.682;8.890;2023-02-11T00:02:32;-2.40;99.90
26224;DHT22;14820;48.682;8.890;2023-02-11T00:04:58;-2.40;99.90
26224;DHT22;14820;48.682;8.890;2023-02-11T00:07:28;-2.40;99.90
26224;DHT22;14820;48.682;8.890;2023-02-11T00:09:53;-2.40;99.90
26224;DHT22;14820;48.682;8.890;2023-02-11T00:12:19;-2.40;99.90
26224;DHT22;14820;48.682;8.890;2023-02-11T00:14:45;-2.40;99.90
26224;DHT22;14820;48.682;8.890;2023-02-11T00:17:10;-2.40;99.90
26224;DHT22;14820;48.682;8.890;2023-02-11T00:19:36;-2.50;99.90
26224;DHT22;14820;48.682;8.890;2023-02-11T00:22:01;-2.50;99.90
26224;DHT22;14820;48.682;8.890;2023-02-11T00:24:27;-2.40;99.90
26224;DHT22;14820;48.682;8.890;2023-02-11T00:26:54;-2.40;99.90
26224;DHT22;14820;48.682;8.890;2023-02-11T00:29:20;-2.40;99.90
26224;DHT22;14820;48.682;8.890;2023-02-11T00:31:46;-2.30;99.90
26224;DHT22;14820;48.682;8.890;2023-02-11T00:34:11;-2.30;99.90
26224;DHT22;14820;48.682;8.890;2023-02-11T00:36:37;-2.40;99.90
26224;DHT22;14820;48.682;8.890;2023-02-11T00:39:03;-2.40;99.90
26224;DHT22;14820;48.682;8.890;2023-02-11T00:41:29;-2.40;99.90
26224;DHT22;14820;48.682;8.890;2023-02-11T00:43:55;-2.40;99.90
26224;DHT22;14820;48.682;8.890;2023-02-11T00:46:21;-2.40;99.90
26224;DHT22;14820;48.682;8.890;2023-02-11T00:48:47;-2.50;99.90
26224;DHT22;14820;48.682;8.890;2023-02-11T00:51:13;-2.50;99.90
26224;DHT22;14820;48.682;8.890;2023-02-11T00:53:39;-2.50;99.90
26224;DHT22;14820;48.682;8.890;2023-02-11T00:56:05;-2.50;99.90
26224;DHT22;14820;48.682;8.890;2023-02-11T00:58:31;-2.60;99.90
26224;DHT22;14820;48.682;8.890;2023-02-11T01:00:57;-2.60;99.90
26224;DHT22;14820;48.682;8.890;2023-02-11T01:03:23;-2.50;99.90
26224;DHT22;14820;48.682;8.890;2023-02-11T01:05:49;-2.40;99.90
26224;DHT22;14820;48.682;8.890;2023-02-11T01:08:14;-2.40;99.90
26224;DHT22;14820;48.682;8.890;2023-02-11T01:10:40;-2.50;99.90
26224;DHT22;14820;48.682;8.890;2023-02-11T01:13:06;-2.50;99.90
26224;DHT22;14820;48.682;8.890;2023-02-11T01:15:32;-2.60;99.90
26224;DHT22;14820;48.682;8.890;2023-02-11T01:17:58;-2.60;99.90
26224;DHT22;14820;48.682;8.890;2023-02-11T01:20:26;-2.60;99.90
26224;DHT22;14820;48.682;8.890;2023-02-11T01:22:52;-2.70;99.90
26224;DHT22;14820;48.682;8.890;2023-02-11T01:25:17;-2.70;99.90
26224;DHT22;14820;48.682;8.890;2023-02-11T01:27:43;-2.70;99.90
26224;DHT22;14820;48.682;8.890;2023-02-11T01:30:12;-2.70;99.90
26224;DHT22;14820;48.682;8.890;2023-02-11T01:32:37;-2.70;99.90
26224;DHT22;14820;48.682;8.890;2023-02-11T01:35:04;-2.80;99.90
26224;DHT22;14820;48.682;8.890;2023-02-11T01:37:32;-2.80;99.90
26224;DHT22;14820;48.682;8.890;2023-02-11T01:39:58;-2.80;99.90
26224;DHT22;14820;48.682;8.890;2023-02-11T01:42:25;-2.80;99.90
26224;DHT22;14820;48.682;8.890;2023-02-11T01:44:53;-2.90;99.90
26224;DHT22;14820;48.682;8.890;2023-02-11T01:47:20;-2.90;99.90
26224;DHT22;14820;48.682;8.890;2023-02-11T01:49:48;-2.90;99.90
26224;DHT22;14820;48.682;8.890;2023-02-11T01:52:35;-2.90;99.90
26224;DHT22;14820;48.682;8.890;2023-02-11T01:55:08;-2.80;99.90
26224;DHT22;14820;48.682;8.890;2023-02-11T01:57:56;-2.80;99.90
26224;DHT22;14820;48.682;8.890;2023-02-11T02:00:35;-2.80;99.90
26224;DHT22;14820;48.682;8.890;2023-02-11T02:03:12;-2.80;99.90
26224;DHT22;14820;48.682;8.890;2023-02-11T02:05:50;-2.80;99.90
26224;DHT22;14820;48.682;8.890;2023-02-11T02:08:28;-2.90;99.90
26224;DHT22;14820;48.682;8.890;2023-02-11T02:10:56;-2.80;99.90
26224;DHT22;14820;48.682;8.890;2023-02-11T02:13:26;-2.80;99.90
26224;DHT22;14820;48.682;8.890;2023-02-11T02:16:09;-2.80;99.90
26224;DHT22;14820;48.682;8.890;2023-02-11T02:30:01;-3.00;99.90
26224;DHT22;14820;48.682;8.890;2023-02-11T02:40:57;-3.00;99.90
26224;DHT22;14820;48.682;8.890;2023-02-11T02:43:25;-3.00;99.90
26224;DHT22;14820;48.682;8.890;2023-02-11T02:45:52;-3.00;99.90
26224;DHT22;14820;48.682;8.890;2023-02-11T02:48:30;-2.90;99.90
26224;DHT22;14820;48.682;8.890;2023-02-11T03:05:42;-3.00;99.90
26224;DHT22;14820;48.682;8.890;2023-02-11T03:11:02;-2.90;99.90
26224;DHT22;14820;48.682;8.890;2023-02-11T03:13:32;-2.90;99.90
26224;DHT22;14820;48.682;8.890;2023-02-11T03:16:03;-3.00;99.90
26224;DHT22;14820;48.682;8.890;2023-02-11T03:18:32;-3.00;99.90
26224;DHT22;14820;48.682;8.890;2023-02-11T03:21:00;-3.00;99.90
26224;DHT22;14820;48.682;8.890;2023-02-11T03:23:29;-3.00;99.90
26224;DHT22;14820;48.682;8.890;2023-02-11T03:28:39;-2.90;99.90
26224;DHT22;14820;48.682;8.890;2023-02-11T03:31:21;-2.90;99.90
26224;DHT22;14820;48.682;8.890;2023-02-11T03:34:05;-2.90;99.90
26224;DHT22;14820;48.682;8.890;2023-02-11T03:39:15;-2.90;99.90
26224;DHT22;14820;48.682;8.890;2023-02-11T03:41:43;-2.90;99.90
26224;DHT22;14820;48.682;8.890;2023-02-11T03:44:12;-3.00;99.90
26224;DHT22;14820;48.682;8.890;2023-02-11T03:46:42;-3.00;99.90
26224;DHT22;14820;48.682;8.890;2023-02-11T03:49:11;-3.00;99.90
26224;DHT22;14820;48.682;8.890;2023-02-11T03:51:38;-3.20;99.90
26224;DHT22;14820;48.682;8.890;2023-02-11T03:54:09;-3.30;99.90
26224;DHT22;14820;48.682;8.890;2023-02-11T03:56:46;-3.40;99.90
26224;DHT22;14820;48.682;8.890;2023-02-11T03:59:13;-3.40;99.90
26224;DHT22;14820;48.682;8.890;2023-02-11T04:01:39;-3.30;99.90
26224;DHT22;14820;48.682;8.890;2023-02-11T04:04:05;-3.20;99.90
26224;DHT22;14820;48.682;8.890;2023-02-11T04:06:30;-3.10;99.90
26224;DHT22;14820;48.682;8.890;2023-02-11T04:08:56;-2.90;99.90
26224;DHT22;14820;48.682;8.890;2023-02-11T04:11:21;-2.90;99.90
26224;DHT22;14820;48.682;8.890;2023-02-11T04:13:47;-2.90;99.90
26224;DHT22;14820;48.682;8.890;2023-02-11T04:16:13;-3.00;99.90
26224;DHT22;14820;48.682;8.890;2023-02-11T04:18:38;-2.90;99.90
26224;DHT22;14820;48.682;8.890;2023-02-11T04:21:04;-3.00;99.90
26224;DHT22;14820;48.682;8.890;2023-02-11T04:23:30;-3.00;99.90
26224;DHT22;14820;48.682;8.890;2023-02-11T04:25:55;-3.00;99.90
26224;DHT22;14820;48.682;8.890;2023-02-11T04:28:21;-2.90;99.90
26224;DHT22;14820;48.682;8.890;2023-02-11T04:30:48;-2.90;99.90
26224;DHT22;14820;48.682;8.890;2023-02-11T04:33:15;-2.80;99.90
26224;DHT22;14820;48.682;8.890;2023-02-11T04:35:40;-2.80;99.90
26224;DHT22;14820;48.682;8.890;2023-02-11T04:38:06;-2.70;99.90
26224;DHT22;14820;48.682;8.890;2023-02-11T04:40:32;-2.70;99.90
26224;DHT22;14820;48.682;8.890;2023-02-11T04:42:57;-2.70;99.90
26224;DHT22;14820;48.682;8.890;2023-02-11T04:45:23;-2.80;99.90
26224;DHT22;14820;48.682;8.890;2023-02-11T04:47:49;-2.80;99.90
26224;DHT22;14820;48.682;8.890;2023-02-11T04:50:14;-2.80;99.90
26224;DHT22;14820;48.682;8.890;2023-02-11T04:52:40;-2.70;99.90
26224;DHT22;14820;48.682;8.890;2023-02-11T04:55:06;-2.60;99.90
26224;DHT22;14820;48.682;8.890;2023-02-11T04:57:31;-2.60;99.90
26224;DHT22;14820;48.682;8.890;2023-02-11T04:59:57;-2.50;99.90
26224;DHT22;14820;48.682;8.890;2023-02-11T05:02:23;-2.50;99.90
26224;DHT22;14820;48.682;8.890;2023-02-11T05:04:48;-2.50;99.90
26224;DHT22;14820;48.682;8.890;2023-02-11T05:07:14;-2.50;99.90
26224;DHT22;14820;48.682;8.890;2023-02-11T05:09:39;-2.50;99.90
26224;DHT22;14820;48.682;8.890;2023-02-11T05:12:05;-2.40;99.90
26224;DHT22;14820;48.682;8.890;2023-02-11T05:14:31;-2.40;99.90
26224;DHT22;14820;48.682;8.890;2023-02-11T05:16:57;-2.30;99.90
26224;DHT22;14820;48.682;8.890;2023-02-11T05:19:23;-2.30;99.90
26224;DHT22;14820;48.682;8.890;2023-02-11T05:21:49;-2.30;99.90
26224;DHT22;14820;48.682;8.890;2023-02-11T05:24:14;-2.20;99.90
26224;DHT22;14820;48.682;8.890;2023-02-11T05:26:40;-2.20;99.90
26224;DHT22;14820;48.682;8.890;2023-02-11T05:29:06;-2.20;99.90
26224;DHT22;14820;48.682;8.890;2023-02-11T05:31:31;-2.20;99.90
26224;DHT22;14820;48.682;8.890;2023-02-11T05:33:57;-2.20;99.90
26224;DHT22;14820;48.682;8.890;2023-02-11T05:36:23;-2.10;99.90
26224;DHT22;14820;48.682;8.890;2023-02-11T05:38:49;-2.10;99.90
26224;DHT22;14820;48.682;8.890;2023-02-11T05:41:15;-2.10;99.90
26224;DHT22;14820;48.682;8.890;2023-02-11T05:43:41;-2.00;99.90
26224;DHT22;14820;48.682;8.890;2023-02-11T05:46:06;-2.00;99.90
26224;DHT22;14820;48.682;8.890;2023-02-11T05:48:32;-2.00;99.90
26224;DHT22;14820;48.682;8.890;2023-02-11T05:50:58;-2.00;99.90
26224;DHT22;14820;48.682;8.890;2023-02-11T05:53:23;-1.90;99.90
26224;DHT22;14820;48.682;8.890;2023-02-11T05:55:49;-1.90;99.90
26224;DHT22;14820;48.682;8.890;2023-02-11T05:58:15;-1.80;99.90
26224;DHT22;14820;48.682;8.890;2023-02-11T06:00:40;-1.80;99.90
26224;DHT22;14820;48.682;8.890;2023-02-11T06:03:06;-1.70;99.90
26224;DHT22;14820;48.682;8.890;2023-02-11T06:05:32;-1.60;99.90
26224;DHT22;14820;48.682;8.890;2023-02-11T06:07:58;-1.60;99.90
26224;DHT22;14820;48.682;8.890;2023-02-11T06:10:24;-1.50;99.90
26224;DHT22;14820;48.682;8.890;2023-02-11T06:12:49;-1.50;99.90
26224;DHT22;14820;48.682;8.890;2023-02-11T06:15:15;-1.40;99.90
26224;DHT22;14820;48.682;8.890;2023-02-11T06:17:41;-1.40;99.90
26224;DHT22;14820;48.682;8.890;2023-02-11T06:20:07;-1.30;99.90
26224;DHT22;14820;48.682;8.890;2023-02-11T06:22:34;-1.40;99.90
26224;DHT22;14820;48.682;8.890;2023-02-11T06:25:00;-1.30;99.90
26224;DHT22;14820;48.682;8.890;2023-02-11T06:27:26;-1.30;99.90
26224;DHT22;14820;48.682;8.890;2023-02-11T06:29:51;-1.40;99.90
26224;DHT22;14820;48.682;8.890;2023-02-11T06:32:17;-1.30;99.90
26224;DHT22;14820;48.682;8.890;2023-02-11T06:34:43;-1.30;99.90
26224;DHT22;14820;48.682;8.890;2023-02-11T06:37:09;-1.20;99.90
26224;DHT22;14820;48.682;8.890;2023-02-11T06:39:35;-1.20;99.90
26224;DHT22;14820;48.682;8.890;2023-02-11T06:42:01;-1.20;99.90
26224;DHT22;14820;48.682;8.890;2023-02-11T06:44:27;-1.20;99.90
26224;DHT22;14820;48.682;8.890;2023-02-11T06:46:52;-1.20;99.90
26224;DHT22;14820;48.682;8.890;2023-02-11T06:49:18;-1.20;99.90
26224;DHT22;14820;48.682;8.890;2023-02-11T06:51:43;-1.10;99.90
26224;DHT22;14820;48.682;8.890;2023-02-11T06:54:10;-1.10;99.90
26224;DHT22;14820;48.682;8.890;2023-02-11T06:56:39;-1.10;99.90
26224;DHT22;14820;48.682;8.890;2023-02-11T06:59:05;-1.10;99.90
26224;DHT22;14820;48.682;8.890;2023-02-11T07:01:31;-1.00;99.90
26224;DHT22;14820;48.682;8.890;2023-02-11T07:03:56;-1.00;99.90
26224;DHT22;14820;48.682;8.890;2023-02-11T07:06:24;-1.00;99.90
26224;DHT22;14820;48.682;8.890;2023-02-11T07:08:53;-1.00;99.90
26224;DHT22;14820;48.682;8.890;2023-02-11T07:11:29;-0.90;99.90
26224;DHT22;14820;48.682;8.890;2023-02-11T07:13:59;-0.90;99.90
26224;DHT22;14820;48.682;8.890;2023-02-11T07:16:26;-0.90;99.90
26224;DHT22;14820;48.682;8.890;2023-02-11T07:18:51;-0.90;99.90
26224;DHT22;14820;48.682;8.890;2023-02-11T07:21:20;-0.80;99.90
26224;DHT22;14820;48.682;8.890;2023-02-11T07:23:46;-0.80;99.90
26224;DHT22;14820;48.682;8.890;2023-02-11T07:26:18;-0.80;99.90
26224;DHT22;14820;48.682;8.890;2023-02-11T07:28:44;-0.80;99.90
26224;DHT22;14820;48.682;8.890;2023-02-11T07:31:13;-0.80;99.90
26224;DHT22;14820;48.682;8.890;2023-02-11T07:33:40;-0.70;99.90
26224;DHT22;14820;48.682;8.890;2023-02-11T07:36:07;-0.70;99.90
26224;DHT22;14820;48.682;8.890;2023-02-11T07:38:35;-0.70;99.90
26224;DHT22;14820;48.682;8.890;2023-02-11T07:41:06;-0.60;99.90
26224;DHT22;14820;48.682;8.890;2023-02-11T07:43:34;-0.60;99.90
26224;DHT22;14820;48.682;8.890;2023-02-11T07:46:07;-0.60;99.90
26224;DHT22;14820;48.682;8.890;2023-02-11T07:48:33;-0.60;99.90
26224;DHT22;14820;48.682;8.890;2023-02-11T07:51:17;-0.50;99.90
26224;DHT22;14820;48.682;8.890;2023-02-11T07:53:44;-0.50;99.90
26224;DHT22;14820;48.682;8.890;2023-02-11T07:56:10;-0.40;99.90
26224;DHT22;14820;48.682;8.890;2023-02-11T07:58:36;-0.40;99.90
26224;DHT22;14820;48.682;8.890;2023-02-11T08:01:07;-0.30;99.90
26224;DHT22;14820;48.682;8.890;2023-02-11T08:03:34;-0.30;99.90
26224;DHT22;14820;48.682;8.890;2023-02-11T08:06:07;-0.30;99.90
26224;DHT22;14820;48.682;8.890;2023-02-11T08:08:33;-0.30;99.90
26224;DHT22;14820;48.682;8.890;2023-02-11T08:11:06;-0.20;99.90
26224;DHT22;14820;48.682;8.890;2023-02-11T08:13:32;-0.20;99.90
26224;DHT22;14820;48.682;8.890;2023-02-11T08:15:58;-0.20;99.90
26224;DHT22;14820;48.682;8.890;2023-02-11T08:18:23;-0.10;99.90
26224;DHT22;14820;48.682;8.890;2023-02-11T08:20:49;-0.10;99.90
26224;DHT22;14820;48.682;8.890;2023-02-11T08:23:15;0.00;99.90
26224;DHT22;14820;48.682;8.890;2023-02-11T08:25:40;0.10;99.90
26224;DHT22;14820;48.682;8.890;2023-02-11T08:28:06;0.20;99.90
26224;DHT22;14820;48.682;8.890;2023-02-11T08:30:33;0.30;99.90
26224;DHT22;14820;48.682;8.890;2023-02-11T08:32:59;0.50;99.90
26224;DHT22;14820;48.682;8.890;2023-02-11T08:35:25;0.50;99.90
26224;DHT22;14820;48.682;8.890;2023-02-11T08:37:51;0.70;99.90
26224;DHT22;14820;48.682;8.890;2023-02-11T08:40:17;0.70;99.90
26224;DHT22;14820;48.682;8.890;2023-02-11T08:42:43;0.80;99.90
26224;DHT22;14820;48.682;8.890;2023-02-11T08:45:09;0.80;99.90
26224;DHT22;14820;48.682;8.890;2023-02-11T08:47:35;0.90;99.90
26224;DHT22;14820;48.682;8.890;2023-02-11T08:50:01;0.90;99.90
26224;DHT22;14820;48.682;8.890;2023-02-11T08:52:27;0.90;99.90
26224;DHT22;14820;48.682;8.890;2023-02-11T08:54:52;1.00;99.90
26224;DHT22;14820;48.682;8.890;2023-02-11T08:57:18;1.00;99.90
26224;DHT22;14820;48.682;8.890;2023-02-11T08:59:44;1.10;99.90
26224;DHT22;14820;48.682;8.890;2023-02-11T09:02:11;1.10;99.90
26224;DHT22;14820;48.682;8.890;2023-02-11T09:04:38;1.30;99.90
26224;DHT22;14820;48.682;8.890;2023-02-11T09:09:30;1.40;99.90
26224;DHT22;14820;48.682;8.890;2023-02-11T09:11:56;1.40;99.90
26224;DHT22;14820;48.682;8.890;2023-02-11T09:14:23;1.50;99.90
26224;DHT22;14820;48.682;8.890;2023-02-11T09:16:49;1.60;99.90
26224;DHT22;14820;48.682;8.890;2023-02-11T09:26:37;2.20;99.90
26224;DHT22;14820;48.682;8.890;2023-02-11T09:29:05;2.30;99.90
26224;DHT22;14820;48.682;8.890;2023-02-11T09:31:32;2.40;99.90
26224;DHT22;14820;48.682;8.890;2023-02-11T09:34:03;2.40;99.90
26224;DHT22;14820;48.682;8.890;2023-02-11T09:36:32;2.50;99.90
26224;DHT22;14820;48.682;8.890;2023-02-11T09:46:35;3.10;99.90
26224;DHT22;14820;48.682;8.890;2023-02-11T09:49:02;3.20;99.90
26224;DHT22;14820;48.682;8.890;2023-02-11T09:51:39;3.30;99.90
26224;DHT22;14820;48.682;8.890;2023-02-11T09:54:21;3.30;99.90
26224;DHT22;14820;48.682;8.890;2023-02-11T09:56:49;3.50;99.90
26224;DHT22;14820;48.682;8.890;2023-02-11T09:59:15;3.70;99.90
26224;DHT22;14820;48.682;8.890;2023-02-11T10:02:01;3.80;99.90
26224;DHT22;14820;48.682;8.890;2023-02-11T10:07:16;4.10;99.90
26224;DHT22;14820;48.682;8.890;2023-02-11T10:12:33;4.30;99.90
26224;DHT22;14820;48.682;8.890;2023-02-11T10:15:20;4.40;99.90
26224;DHT22;14820;48.682;8.890;2023-02-11T10:21:18;4.60;99.90
26224;DHT22;14820;48.682;8.890;2023-02-11T10:23:53;4.70;99.90
26224;DHT22;14820;48.682;8.890;2023-02-11T10:26:20;4.80;99.90
26224;DHT22;14820;48.682;8.890;2023-02-11T10:28:49;4.90;99.90
26224;DHT22;14820;48.682;8.890;2023-02-11T10:33:50;5.10;99.90
26224;DHT22;14820;48.682;8.890;2023-02-11T10:36:20;5.20;99.90
26224;DHT22;14820;48.682;8.890;2023-02-11T10:38:48;5.30;99.90
26224;DHT22;14820;48.682;8.890;2023-02-11T10:41:20;5.40;99.90
26224;DHT22;14820;48.682;8.890;2023-02-11T10:43:47;5.60;99.90
26224;DHT22;14820;48.682;8.890;2023-02-11T10:46:19;5.60;99.90
26224;DHT22;14820;48.682;8.890;2023-02-11T10:48:47;5.70;99.90
26224;DHT22;14820;48.682;8.890;2023-02-11T10:51:20;5.80;99.90
26224;DHT22;14820;48.682;8.890;2023-02-11T10:53:48;5.70;99.90
26224;DHT22;14820;48.682;8.890;2023-02-11T10:56:25;5.90;99.90
26224;DHT22;14820;48.682;8.890;2023-02-11T11:02:26;6.10;99.90
26224;DHT22;14820;48.682;8.890;2023-02-11T11:04:58;6.40;99.90
26224;DHT22;14820;48.682;8.890;2023-02-11T11:07:27;6.40;99.90
26224;DHT22;14820;48.682;8.890;2023-02-11T11:10:25;6.50;99.90
26224;DHT22;14820;48.682;8.890;2023-02-11T11:12:51;6.60;99.90
26224;DHT22;14820;48.682;8.890;2023-02-11T11:15:22;6.80;99.90
26224;DHT22;14820;48.682;8.890;2023-02-11T11:17:49;6.90;99.90
26224;DHT22;14820;48.682;8.890;2023-02-11T11:20:32;7.00;99.90
26224;DHT22;14820;48.682;8.890;2023-02-11T11:23:21;7.10;99.90
26224;DHT22;14820;48.682;8.890;2023-02-11T11:31:34;7.60;99.90
26224;DHT22;14820;48.682;8.890;2023-02-11T11:34:25;7.60;99.90
26224;DHT22;14820;48.682;8.890;2023-02-11T11:36:52;7.70;99.90
26224;DHT22;14820;48.682;8.890;2023-02-11T11:39:24;7.70;99.90
26224;DHT22;14820;48.682;8.890;2023-02-11T11:41:58;7.70;99.90
26224;DHT22;14820;48.682;8.890;2023-02-11T11:44:35;7.80;99.90
26224;DHT22;14820;48.682;8.890;2023-02-11T11:49:42;8.00;99.90
26224;DHT22;14820;48.682;8.890;2023-02-11T11:52:32;8.00;99.90
26224;DHT22;14820;48.682;8.890;2023-02-11T11:55:15;8.20;99.90
26224;DHT22;14820;48.682;8.890;2023-02-11T11:57:42;8.20;99.90
26224;DHT22;14820;48.682;8.890;2023-02-11T12:00:18;8.40;99.90
26224;DHT22;14820;48.682;8.890;2023-02-11T12:11:31;8.80;99.90
26224;DHT22;14820;48.682;8.890;2023-02-11T12:14:44;8.90;99.90
26224;DHT22;14820;48.682;8.890;2023-02-11T12:17:06;9.00;99.90
26224;DHT22;14820;48.682;8.890;2023-02-11T12:25:28;9.30;99.90
26224;DHT22;14820;48.682;8.890;2023-02-11T12:28:02;9.30;99.90
26224;DHT22;14820;48.682;8.890;2023-02-11T12:30:48;9.30;99.90
26224;DHT22;14820;48.682;8.890;2023-02-11T12:39:50;9.40;99.90
26224;DHT22;14820;48.682;8.890;2023-02-11T12:42:31;9.40;99.90
26224;DHT22;14820;48.682;8.890;2023-02-11T12:45:37;9.40;99.90
26224;DHT22;14820;48.682;8.890;2023-02-11T12:48:19;9.40;99.90
26224;DHT22;14820;48.682;8.890;2023-02-11T12:55:47;9.70;99.90
26224;DHT22;14820;48.682;8.890;2023-02-11T12:58:19;10.10;99.90
26224;DHT22;14820;48.682;8.890;2023-02-11T13:01:00;9.90;99.90
26224;DHT22;14820;48.682;8.890;2023-02-11T13:04:05;9.90;99.90
26224;DHT22;14820;48.682;8.890;2023-02-11T13:06:37;10.00;99.90
26224;DHT22;14820;48.682;8.890;2023-02-11T13:09:08;10.00;99.90
26224;DHT22;14820;48.682;8.890;2023-02-11T13:11:40;10.00;99.90
26224;DHT22;14820;48.682;8.890;2023-02-11T13:14:36;10.00;99.90
26224;DHT22;14820;48.682;8.890;2023-02-11T13:17:12;10.00;99.90
26224;DHT22;14820;48.682;8.890;2023-02-11T13:19:47;10.00;99.90
26224;DHT22;14820;48.682;8.890;2023-02-11T13:22:25;9.90;99.90
26224;DHT22;14820;48.682;8.890;2023-02-11T13:30:31;10.00;99.90
26224;DHT22;14820;48.682;8.890;2023-02-11T13:38:00;10.10;99.90
26224;DHT22;14820;48.682;8.890;2023-02-11T13:40:36;10.20;99.90
26224;DHT22;14820;48.682;8.890;2023-02-11T13:45:43;10.20;99.90
26224;DHT22;14820;48.682;8.890;2023-02-11T13:50:52;10.20;99.90
26224;DHT22;14820;48.682;8.890;2023-02-11T13:53:19;10.20;99.90
26224;DHT22;14820;48.682;8.890;2023-02-11T13:55:48;10.00;99.90
26224;DHT22;14820;48.682;8.890;2023-02-11T14:00:53;10.00;99.90
26224;DHT22;14820;48.682;8.890;2023-02-11T14:03:25;10.10;99.90
26224;DHT22;14820;48.682;8.890;2023-02-11T14:06:11;10.20;99.90
26224;DHT22;14820;48.682;8.890;2023-02-11T14:19:41;10.40;99.90
26224;DHT22;14820;48.682;8.890;2023-02-11T14:22:16;10.40;99.90
26224;DHT22;14820;48.682;8.890;2023-02-11T14:24:54;10.40;99.90
26224;DHT22;14820;48.682;8.890;2023-02-11T14:27:33;10.50;99.90
26224;DHT22;14820;48.682;8.890;2023-02-11T14:30:18;10.50;99.90
26224;DHT22;14820;48.682;8.890;2023-02-11T14:43:02;10.90;99.90
26224;DHT22;14820;48.682;8.890;2023-02-11T14:45:33;10.90;99.90
26224;DHT22;14820;48.682;8.890;2023-02-11T14:48:02;10.90;99.90
26224;DHT22;14820;48.682;8.890;2023-02-11T14:50:40;10.90;99.90
26224;DHT22;14820;48.682;8.890;2023-02-11T14:53:20;11.00;99.90
26224;DHT22;14820;48.682;8.890;2023-02-11T14:55:51;10.90;99.90
26224;DHT22;14820;48.682;8.890;2023-02-11T14:58:20;10.90;99.90
26224;DHT22;14820;48.682;8.890;2023-02-11T15:01:20;10.90;99.90
26224;DHT22;14820;48.682;8.890;2023-02-11T15:03:48;11.10;99.90
26224;DHT22;14820;48.682;8.890;2023-02-11T15:06:18;11.10;99.90
26224;DHT22;14820;48.682;8.890;2023-02-11T15:08:51;11.10;99.90
26224;DHT22;14820;48.682;8.890;2023-02-11T15:11:22;11.10;99.90
26224;DHT22;14820;48.682;8.890;2023-02-11T15:13:49;11.00;99.90
26224;DHT22;14820;48.682;8.890;2023-02-11T15:16:21;10.90;99.90
26224;DHT22;14820;48.682;8.890;2023-02-11T15:18:51;10.90;99.90
26224;DHT22;14820;48.682;8.890;2023-02-11T15:21:22;10.90;99.90
26224;DHT22;14820;48.682;8.890;2023-02-11T15:24:00;10.80;99.90
26224;DHT22;14820;48.682;8.890;2023-02-11T15:26:27;10.60;99.90
26224;DHT22;14820;48.682;8.890;2023-02-11T15:28:52;10.50;99.90
26224;DHT22;14820;48.682;8.890;2023-02-11T15:31:23;10.40;99.90
26224;DHT22;14820;48.682;8.890;2023-02-11T15:33:50;10.40;99.90
26224;DHT22;14820;48.682;8.890;2023-02-11T15:36:22;10.30;99.90
26224;DHT22;14820;48.682;8.890;2023-02-11T15:39:15;10.30;99.90
26224;DHT22;14820;48.682;8.890;2023-02-11T15:41:41;10.10;99.90
26224;DHT22;14820;48.682;8.890;2023-02-11T15:46:51;9.80;99.90
26224;DHT22;14820;48.682;8.890;2023-02-11T15:49:17;9.30;99.90
26224;DHT22;14820;48.682;8.890;2023-02-11T15:51:44;9.30;99.90
26224;DHT22;14820;48.682;8.890;2023-02-11T15:54:22;9.10;99.90
26224;DHT22;14820;48.682;8.890;2023-02-11T15:56:50;9.00;99.90
26224;DHT22;14820;48.682;8.890;2023-02-11T15:59:19;8.80;99.90
26224;DHT22;14820;48.682;8.890;2023-02-11T16:01:47;8.60;99.90
26224;DHT22;14820;48.682;8.890;2023-02-11T16:06:44;8.30;99.90
26224;DHT22;14820;48.682;8.890;2023-02-11T16:17:41;7.90;99.90
26224;DHT22;14820;48.682;8.890;2023-02-11T16:19:48;7.80;99.90
26224;DHT22;14820;48.682;8.890;2023-02-11T16:22:34;7.70;99.90
26224;DHT22;14820;48.682;8.890;2023-02-11T16:25:02;7.60;99.90
26224;DHT22;14820;48.682;8.890;2023-02-11T16:27:40;7.50;99.90
26224;DHT22;14820;48.682;8.890;2023-02-11T16:30:36;7.40;99.90
26224;DHT22;14820;48.682;8.890;2023-02-11T16:33:02;7.40;99.90
26224;DHT22;14820;48.682;8.890;2023-02-11T16:35:29;7.30;99.90
26224;DHT22;14820;48.682;8.890;2023-02-11T16:37:54;7.20;99.90
26224;DHT22;14820;48.682;8.890;2023-02-11T16:40:20;7.10;99.90
26224;DHT22;14820;48.682;8.890;2023-02-11T16:42:48;7.10;99.90
26224;DHT22;14820;48.682;8.890;2023-02-11T16:45:14;7.00;99.90
26224;DHT22;14820;48.682;8.890;2023-02-11T16:47:41;7.10;99.90
26224;DHT22;14820;48.682;8.890;2023-02-11T16:50:09;7.20;99.90
26224;DHT22;14820;48.682;8.890;2023-02-11T16:52:36;7.40;99.90
26224;DHT22;14820;48.682;8.890;2023-02-11T16:55:05;7.50;99.90
26224;DHT22;14820;48.682;8.890;2023-02-11T16:57:31;7.50;99.90
26224;DHT22;14820;48.682;8.890;2023-02-11T16:59:57;7.50;99.90
26224;DHT22;14820;48.682;8.890;2023-02-11T17:02:35;7.50;99.90
26224;DHT22;14820;48.682;8.890;2023-02-11T17:05:04;7.40;99.90
26224;DHT22;14820;48.682;8.890;2023-02-11T17:07:31;7.30;99.90
26224;DHT22;14820;48.682;8.890;2023-02-11T17:09:57;7.10;99.90
26224;DHT22;14820;48.682;8.890;2023-02-11T17:12:23;7.10;99.90
26224;DHT22;14820;48.682;8.890;2023-02-11T17:14:52;7.20;99.90
26224;DHT22;14820;48.682;8.890;2023-02-11T17:17:18;7.20;99.90
26224;DHT22;14820;48.682;8.890;2023-02-11T17:19:47;7.10;99.90
26224;DHT22;14820;48.682;8.890;2023-02-11T17:22:12;7.10;99.90
26224;DHT22;14820;48.682;8.890;2023-02-11T17:24:38;7.10;99.90
26224;DHT22;14820;48.682;8.890;2023-02-11T17:27:04;7.10;99.90
26224;DHT22;14820;48.682;8.890;2023-02-11T17:29:30;7.00;99.90
26224;DHT22;14820;48.682;8.890;2023-02-11T17:31:56;6.90;99.90
26224;DHT22;14820;48.682;8.890;2023-02-11T17:34:22;6.90;99.90
26224;DHT22;14820;48.682;8.890;2023-02-11T17:36:48;7.10;99.90
26224;DHT22;14820;48.682;8.890;2023-02-11T17:39:13;6.70;99.90
26224;DHT22;14820;48.682;8.890;2023-02-11T17:41:39;6.60;99.90
26224;DHT22;14820;48.682;8.890;2023-02-11T17:44:06;6.70;99.90
26224;DHT22;14820;48.682;8.890;2023-02-11T17:46:34;6.60;99.90
26224;DHT22;14820;48.682;8.890;2023-02-11T17:49:00;6.60;99.90
26224;DHT22;14820;48.682;8.890;2023-02-11T17:51:32;6.60;99.90
26224;DHT22;14820;48.682;8.890;2023-02-11T17:53:59;6.60;99.90
26224;DHT22;14820;48.682;8.890;2023-02-11T17:56:26;6.60;99.90
26224;DHT22;14820;48.682;8.890;2023-02-11T17:58:51;6.50;99.90
26224;DHT22;14820;48.682;8.890;2023-02-11T18:01:20;6.60;99.90
26224;DHT22;14820;48.682;8.890;2023-02-11T18:03:46;6.60;99.90
26224;DHT22;14820;48.682;8.890;2023-02-11T18:06:11;6.60;99.90
26224;DHT22;14820;48.682;8.890;2023-02-11T18:08:37;6.60;99.90
26224;DHT22;14820;48.682;8.890;2023-02-11T18:11:03;6.60;99.90
26224;DHT22;14820;48.682;8.890;2023-02-11T18:13:29;6.70;99.90
26224;DHT22;14820;48.682;8.890;2023-02-11T18:16:00;6.70;99.90
26224;DHT22;14820;48.682;8.890;2023-02-11T18:18:25;6.60;99.90
26224;DHT22;14820;48.682;8.890;2023-02-11T18:20:58;6.60;99.90
26224;DHT22;14820;48.682;8.890;2023-02-11T18:23:25;6.50;99.90
26224;DHT22;14820;48.682;8.890;2023-02-11T18:25:51;6.60;99.90
26224;DHT22;14820;48.682;8.890;2023-02-11T18:28:17;6.50;99.90
26224;DHT22;14820;48.682;8.890;2023-02-11T18:30:43;6.60;99.90
26224;DHT22;14820;48.682;8.890;2023-02-11T18:33:09;6.60;99.90